Time;durP1;ratioP1;P1;durP2;ratioP2;P2;SDS_P1;SDS_P2;PMS_P1;PMS_P2;Temp;Humidity;BMP_temperature;BMP_pressure;BME280_temperature;BME280_humidity;BME280_pressure;Samples;Min_cycle;Max_cycle;Signal;HPM_P1;HPM_P2
2021/09/01 00:00:16;;;;;;;20.43;1.43;;;15.80;99.90;;;;;;5030833;28;20262;-75
2021/09/01 00:02:41;;;;;;;1.00;0.83;;;15.70;99.90;;;;;;5013897;28;20215;-75
2021/09/01 00:05:08;;;;;;;1.07;0.97;;;15.70;99.90;;;;;;5012233;28;20215;-74
2021/09/01 00:07:34;;;;;;;0.70;0.57;;;15.70;99.90;;;;;;5017528;28;20176;-74
2021/09/01 00:09:59;;;;;;;0.90;0.80;;;15.70;99.90;;;;;;5022019;28;20507;-74
2021/09/01 00:12:27;;;;;;;1.07;1.03;;;15.60;99.90;;;;;;5020540;28;20207;-74
2021/09/01 00:14:53;;;;;;;1.27;1.17;;;15.60;99.90;;;;;;5015164;28;20180;-75
2021/09/01 00:17:18;;;;;;;1.00;0.60;;;15.60;99.90;;;;;;5013727;28;20442;-75
2021/09/01 00:19:44;;;;;;;0.80;0.80;;;15.50;99.90;;;;;;5016731;28;20195;-73
2021/09/01 00:22:09;;;;;;;1.63;1.37;;;15.60;99.90;;;;;;5024718;28;20626;-75
2021/09/01 00:24:35;;;;;;;1.10;0.67;;;15.60;99.90;;;;;;5021371;28;20230;-74
2021/09/01 00:27:01;;;;;;;1.83;1.73;;;15.60;99.90;;;;;;5015725;28;20605;-74
2021/09/01 00:29:26;;;;;;;0.77;0.63;;;15.70;99.90;;;;;;5016299;28;20291;-73
2021/09/01 00:31:52;;;;;;;1.43;1.33;;;15.70;99.90;;;;;;5029563;28;20194;-73
2021/09/01 00:34:17;;;;;;;3.43;1.00;;;15.70;99.90;;;;;;5031846;28;20604;-75
2021/09/01 00:36:43;;;;;;;1.77;1.67;;;15.70;99.90;;;;;;5031008;28;20183;-75
2021/09/01 00:39:08;;;;;;;2.03;1.93;;;15.80;99.90;;;;;;5021086;28;20204;-74
2021/09/01 00:41:34;;;;;;;1.00;0.80;;;15.80;99.90;;;;;;5031009;28;20209;-74
2021/09/01 00:44:19;;;;;;;1.53;1.40;;;15.80;99.90;;;;;;5022187;28;20703;-74
2021/09/01 00:46:50;;;;;;;1.73;1.60;;;15.80;99.90;;;;;;5030256;28;20206;-74
2021/09/01 00:49:15;;;;;;;3.90;1.90;;;15.90;99.90;;;;;;5028218;28;20808;-73
2021/09/01 00:51:51;;;;;;;0.70;0.53;;;15.90;99.90;;;;;;5018047;28;20518;-75
2021/09/01 00:54:19;;;;;;;1.10;0.90;;;15.90;99.90;;;;;;5011911;28;20201;-74
2021/09/01 00:56:50;;;;;;;1.07;0.63;;;15.90;99.90;;;;;;5012537;28;20526;-76
2021/09/01 00:59:17;;;;;;;4.77;1.60;;;16.00;99.90;;;;;;5020072;28;20462;-73
2021/09/01 01:01:44;;;;;;;2.30;1.47;;;16.00;99.90;;;;;;5023566;28;20525;-74
2021/09/01 01:04:10;;;;;;;4.60;2.00;;;16.10;99.90;;;;;;5020519;28;20823;-74
2021/09/01 01:06:36;;;;;;;3.73;0.80;;;16.10;99.90;;;;;;5027447;28;20439;-72
2021/09/01 01:09:02;;;;;;;4.30;1.20;;;16.10;99.90;;;;;;5017292;28;20290;-74
2021/09/01 01:11:28;;;;;;;1.10;1.00;;;16.10;99.90;;;;;;5024340;28;20223;-72
2021/09/01 01:13:54;;;;;;;1.13;0.90;;;16.20;99.90;;;;;;5020511;28;20443;-71
2021/09/01 01:16:25;;;;;;;1.00;0.90;;;16.20;99.90;;;;;;5022580;28;20188;-73
2021/09/01 01:18:52;;;;;;;0.80;0.70;;;16.20;99.90;;;;;;5012574;28;20447;-72
2021/09/01 01:21:25;;;;;;;0.87;0.87;;;16.20;99.90;;;;;;5015195;28;20430;-73
2021/09/01 01:23:59;;;;;;;1.13;0.90;;;16.30;99.90;;;;;;5018067;28;20548;-74
2021/09/01 01:26:25;;;;;;;0.90;0.57;;;16.30;99.90;;;;;;5016170;28;20462;-74
2021/09/01 01:28:53;;;;;;;2.00;1.67;;;16.30;99.90;;;;;;5032252;28;20456;-72
2021/09/01 01:31:20;;;;;;;1.43;0.90;;;16.30;99.90;;;;;;5028304;28;20430;-73
2021/09/01 01:33:45;;;;;;;3.17;2.97;;;16.30;99.90;;;;;;5026337;28;20438;-73
2021/09/01 01:36:11;;;;;;;1.33;1.23;;;16.30;99.90;;;;;;5027424;28;20441;-72
2021/09/01 01:38:37;;;;;;;1.20;0.83;;;16.30;99.90;;;;;;5028789;28;20203;-74
2021/09/01 01:41:02;;;;;;;1.90;1.43;;;16.30;99.90;;;;;;5030760;28;20187;-76
2021/09/01 01:43:31;;;;;;;4.50;2.43;;;16.30;99.90;;;;;;5033681;28;20199;-74
2021/09/01 01:45:56;;;;;;;2.97;1.23;;;16.30;99.90;;;;;;5020134;28;20191;-74
2021/09/01 01:48:23;;;;;;;2.63;2.53;;;16.40;99.90;;;;;;5021818;28;20451;-74
2021/09/01 01:50:48;;;;;;;1.20;1.10;;;16.40;99.90;;;;;;5019224;28;20180;-73
2021/09/01 01:53:14;;;;;;;1.37;1.20;;;16.40;99.90;;;;;;5034637;28;20777;-73
2021/09/01 01:55:40;;;;;;;1.20;1.10;;;16.40;99.90;;;;;;5025827;28;20203;-73
2021/09/01 01:58:05;;;;;;;1.13;0.87;;;16.40;99.90;;;;;;5014561;28;20599;-73
2021/09/01 02:00:31;;;;;;;6.80;0.90;;;16.40;99.90;;;;;;5014406;28;20185;-73
2021/09/01 02:02:56;;;;;;;0.80;0.70;;;16.40;99.90;;;;;;5025934;28;20234;-73
2021/09/01 02:05:22;;;;;;;1.10;1.00;;;16.40;99.90;;;;;;5021958;28;20271;-72
2021/09/01 02:07:48;;;;;;;4.60;2.80;;;16.40;99.90;;;;;;5029660;28;20211;-75
2021/09/01 02:10:13;;;;;;;3.03;1.00;;;16.50;99.90;;;;;;5019321;28;20196;-75
2021/09/01 02:12:40;;;;;;;0.80;0.70;;;16.40;99.90;;;;;;5017941;28;20187;-74
2021/09/01 02:15:07;;;;;;;1.00;0.90;;;16.40;99.90;;;;;;5013987;28;20545;-75
2021/09/01 02:17:34;;;;;;;1.63;1.53;;;16.40;99.90;;;;;;5014113;28;20470;-73
2021/09/01 02:19:59;;;;;;;0.70;0.60;;;16.40;99.90;;;;;;5014170;28;20462;-73
2021/09/01 02:22:25;;;;;;;1.37;0.90;;;16.40;99.90;;;;;;5018307;28;20923;-73
2021/09/01 02:24:51;;;;;;;1.00;0.93;;;16.40;99.90;;;;;;5025964;28;20241;-74
2021/09/01 02:27:18;;;;;;;3.73;1.93;;;16.40;99.90;;;;;;5016209;28;20749;-73
2021/09/01 02:29:43;;;;;;;1.03;1.00;;;16.40;99.90;;;;;;5022253;28;20906;-73
2021/09/01 02:32:09;;;;;;;1.93;1.23;;;16.40;99.90;;;;;;5017694;28;20449;-74
2021/09/01 02:34:35;;;;;;;3.47;1.43;;;16.50;99.90;;;;;;5033674;28;20175;-73
2021/09/01 02:37:00;;;;;;;2.80;1.70;;;16.50;99.90;;;;;;5022312;28;20212;-73
2021/09/01 02:39:26;;;;;;;1.83;1.70;;;16.50;99.90;;;;;;5021230;28;20555;-73
2021/09/01 02:41:52;;;;;;;0.83;0.73;;;16.50;99.90;;;;;;5015634;28;20176;-73
2021/09/01 02:44:18;;;;;;;2.40;1.67;;;16.50;99.90;;;;;;5017971;28;20196;-73
2021/09/01 02:46:44;;;;;;;2.40;0.60;;;16.50;99.90;;;;;;5022127;28;20928;-74
2021/09/01 02:49:11;;;;;;;0.70;0.50;;;16.50;99.90;;;;;;5012624;28;20450;-74
2021/09/01 02:51:36;;;;;;;1.80;1.70;;;16.50;99.90;;;;;;5013393;28;20250;-74
2021/09/01 02:54:02;;;;;;;1.67;1.00;;;16.50;99.90;;;;;;5020935;28;20931;-74
2021/09/01 02:56:29;;;;;;;0.80;0.70;;;16.50;99.90;;;;;;5027214;28;20245;-75
2021/09/01 02:58:54;;;;;;;1.90;0.97;;;16.50;99.90;;;;;;5031797;28;20458;-75
2021/09/01 03:01:20;;;;;;;0.70;0.50;;;16.50;99.90;;;;;;5013234;28;20524;-74
2021/09/01 03:03:46;;;;;;;1.33;0.70;;;16.50;99.90;;;;;;5014253;28;20207;-74
2021/09/01 03:06:11;;;;;;;0.70;0.50;;;16.50;99.90;;;;;;5014310;28;20180;-74
2021/09/01 03:08:37;;;;;;;2.07;0.80;;;16.50;99.90;;;;;;5030787;28;20203;-74
2021/09/01 03:11:02;;;;;;;0.70;0.60;;;16.50;99.90;;;;;;5019552;28;20241;-74
2021/09/01 03:13:28;;;;;;;1.17;1.07;;;16.50;99.90;;;;;;5023781;28;20208;-74
2021/09/01 03:15:54;;;;;;;1.67;1.57;;;16.50;99.90;;;;;;5016759;28;20229;-72
2021/09/01 03:18:19;;;;;;;1.30;1.10;;;16.50;99.90;;;;;;5024047;28;20200;-72
2021/09/01 03:20:45;;;;;;;1.00;0.87;;;16.50;99.90;;;;;;5024958;28;20240;-72
2021/09/01 03:23:10;;;;;;;0.93;0.90;;;16.40;99.90;;;;;;5026890;28;20203;-72
2021/09/01 03:25:36;;;;;;;1.73;1.63;;;16.40;99.90;;;;;;5016236;28;20182;-73
2021/09/01 03:28:01;;;;;;;1.47;0.90;;;16.50;99.90;;;;;;5032712;28;20171;-73
2021/09/01 03:30:28;;;;;;;1.30;0.70;;;16.40;99.90;;;;;;5020450;28;20226;-73
2021/09/01 03:32:54;;;;;;;3.43;1.50;;;16.50;99.90;;;;;;5019590;28;20590;-74
2021/09/01 03:35:20;;;;;;;1.20;1.10;;;16.50;99.90;;;;;;5032487;28;20822;-74
2021/09/01 03:37:46;;;;;;;0.83;0.83;;;16.40;99.90;;;;;;5023172;28;20427;-73
2021/09/01 03:40:11;;;;;;;1.10;0.90;;;16.40;99.90;;;;;;5012366;28;20250;-73
2021/09/01 03:42:37;;;;;;;0.83;0.70;;;16.40;99.90;;;;;;5011504;28;20617;-74
2021/09/01 03:45:04;;;;;;;0.93;0.93;;;16.40;99.90;;;;;;5012444;28;20171;-76
2021/09/01 03:47:29;;;;;;;1.50;1.40;;;16.40;99.90;;;;;;5012771;28;20756;-73
2021/09/01 03:49:55;;;;;;;0.70;0.60;;;16.40;99.90;;;;;;5023425;28;20447;-73
2021/09/01 03:52:21;;;;;;;1.53;1.43;;;16.40;99.90;;;;;;5012758;28;20200;-75
2021/09/01 03:54:46;;;;;;;1.10;1.07;;;16.40;99.90;;;;;;5012303;28;20187;-74
2021/09/01 03:57:12;;;;;;;2.67;2.47;;;16.40;99.90;;;;;;5012518;28;20187;-74
2021/09/01 03:59:37;;;;;;;1.40;1.17;;;16.40;99.90;;;;;;5012215;28;20187;-73
2021/09/01 04:02:03;;;;;;;0.80;0.63;;;16.40;99.90;;;;;;5011432;28;20184;-73
2021/09/01 04:04:29;;;;;;;1.17;0.90;;;16.40;99.90;;;;;;5015103;28;20616;-73
2021/09/01 04:06:54;;;;;;;1.20;1.10;;;16.50;99.90;;;;;;5016555;28;20538;-73
2021/09/01 04:09:20;;;;;;;1.87;1.43;;;16.40;99.90;;;;;;5014480;28;20214;-73
2021/09/01 04:11:45;;;;;;;0.80;0.53;;;16.40;99.90;;;;;;5018122;28;20238;-73
2021/09/01 04:14:11;;;;;;;5.50;2.90;;;16.40;99.90;;;;;;5013397;28;20251;-74
2021/09/01 04:16:36;;;;;;;0.80;0.70;;;16.40;99.90;;;;;;5014297;28;20183;-73
2021/09/01 04:19:02;;;;;;;1.03;0.97;;;16.40;99.90;;;;;;5021165;28;20207;-75
2021/09/01 04:21:28;;;;;;;0.80;0.60;;;16.40;99.90;;;;;;5011741;28;20191;-73
2021/09/01 04:23:53;;;;;;;1.00;0.63;;;16.40;99.90;;;;;;5011570;28;20207;-73
2021/09/01 04:26:19;;;;;;;0.70;0.50;;;16.40;99.90;;;;;;5011947;28;21068;-73
2021/09/01 04:28:44;;;;;;;1.27;0.87;;;16.40;99.90;;;;;;5014639;28;20195;-73
2021/09/01 04:31:10;;;;;;;3.23;0.87;;;16.40;99.90;;;;;;5020402;28;20238;-74
2021/09/01 04:33:35;;;;;;;1.20;0.70;;;16.40;99.90;;;;;;5016500;28;20210;-74
2021/09/01 04:36:01;;;;;;;2.00;1.87;;;16.40;99.90;;;;;;5021329;28;20673;-74
2021/09/01 04:38:26;;;;;;;4.50;2.77;;;16.40;99.90;;;;;;5026614;28;20548;-74
2021/09/01 04:40:52;;;;;;;1.07;0.97;;;16.40;99.90;;;;;;5011747;28;20668;-75
2021/09/01 04:43:18;;;;;;;0.70;0.50;;;16.40;99.90;;;;;;5011716;28;20630;-73
2021/09/01 04:45:43;;;;;;;1.43;1.33;;;16.40;99.90;;;;;;5015411;28;20181;-73
2021/09/01 04:48:09;;;;;;;1.90;0.80;;;16.40;99.90;;;;;;5012022;28;20164;-73
2021/09/01 04:50:35;;;;;;;10.20;1.83;;;16.40;99.90;;;;;;5011877;28;20585;-73
2021/09/01 04:53:00;;;;;;;0.70;0.50;;;16.40;99.90;;;;;;5031737;28;20199;-73
2021/09/01 04:55:26;;;;;;;1.47;1.37;;;16.40;99.90;;;;;;5029046;28;20481;-74
2021/09/01 04:57:52;;;;;;;1.67;1.57;;;16.40;99.90;;;;;;5033438;28;20218;-73
2021/09/01 05:00:17;;;;;;;2.50;0.90;;;16.40;99.90;;;;;;5027998;28;20203;-73
2021/09/01 05:02:43;;;;;;;0.73;0.53;;;16.40;99.90;;;;;;5030775;28;20214;-73
2021/09/01 05:05:09;;;;;;;0.83;0.77;;;16.40;99.90;;;;;;5015136;28;20179;-74
2021/09/01 05:07:34;;;;;;;1.53;0.77;;;16.40;99.90;;;;;;5015599;28;20176;-72
2021/09/01 05:10:00;;;;;;;0.70;0.50;;;16.40;99.90;;;;;;5015603;28;20427;-73
2021/09/01 05:12:27;;;;;;;4.80;1.37;;;16.40;99.90;;;;;;5027022;28;20544;-73
2021/09/01 05:14:57;;;;;;;5.67;2.27;;;16.40;99.90;;;;;;5017848;28;20184;-73
2021/09/01 05:17:23;;;;;;;1.80;1.70;;;16.40;99.90;;;;;;5031355;28;20423;-73
2021/09/01 05:19:49;;;;;;;1.40;0.97;;;16.40;99.90;;;;;;5034255;28;20796;-72
2021/09/01 05:22:24;;;;;;;0.93;0.93;;;16.40;99.90;;;;;;5031667;28;20950;-73
2021/09/01 05:24:49;;;;;;;1.30;1.10;;;16.40;99.90;;;;;;5024838;28;20946;-73
2021/09/01 05:27:20;;;;;;;1.17;1.07;;;16.40;99.90;;;;;;5021441;28;20451;-73
2021/09/01 05:29:50;;;;;;;6.60;0.87;;;16.40;99.90;;;;;;5020862;28;20195;-73
2021/09/01 05:32:26;;;;;;;0.80;0.60;;;16.50;99.90;;;;;;5034813;28;20418;-75
2021/09/01 05:34:54;;;;;;;1.77;1.67;;;16.50;99.90;;;;;;5022052;28;20488;-75
2021/09/01 05:37:21;;;;;;;2.53;1.30;;;16.50;99.90;;;;;;5015742;28;20435;-74
2021/09/01 05:39:48;;;;;;;1.40;0.87;;;16.50;99.90;;;;;;5032281;28;20449;-73
2021/09/01 05:42:21;;;;;;;2.77;2.67;;;16.50;99.90;;;;;;5033566;28;20561;-74
2021/09/01 05:44:48;;;;;;;0.80;0.80;;;16.50;99.90;;;;;;5022734;28;20462;-73
2021/09/01 05:47:14;;;;;;;1.00;0.73;;;16.50;99.90;;;;;;5022747;28;20905;-73
2021/09/01 05:49:42;;;;;;;2.20;1.37;;;16.50;99.90;;;;;;5033689;28;20919;-73
2021/09/01 05:52:08;;;;;;;2.90;1.73;;;16.50;99.90;;;;;;5030802;28;20981;-73
2021/09/01 05:54:35;;;;;;;0.80;0.60;;;16.50;99.90;;;;;;5013874;28;20444;-73
2021/09/01 05:57:06;;;;;;;2.80;1.60;;;16.50;99.90;;;;;;5013862;28;20446;-73
2021/09/01 05:59:47;;;;;;;0.80;0.70;;;16.60;99.90;;;;;;5018250;28;20451;-73
2021/09/01 06:02:21;;;;;;;1.20;1.10;;;16.60;99.90;;;;;;5023408;28;20454;-73
2021/09/01 06:04:47;;;;;;;1.93;1.30;;;16.70;99.90;;;;;;5031367;28;20454;-72
2021/09/01 06:07:18;;;;;;;1.03;0.90;;;16.70;99.90;;;;;;5024065;28;20424;-72
2021/09/01 06:09:45;;;;;;;1.53;0.80;;;16.70;99.90;;;;;;5032850;28;20199;-72
2021/09/01 06:12:18;;;;;;;0.80;0.70;;;16.70;99.90;;;;;;5032932;28;20411;-72
2021/09/01 06:14:44;;;;;;;1.80;1.70;;;16.70;99.90;;;;;;5034170;28;20410;-72
2021/09/01 06:17:10;;;;;;;2.03;1.93;;;16.70;99.90;;;;;;5033748;28;20981;-72
2021/09/01 06:19:36;;;;;;;1.57;0.93;;;16.70;99.90;;;;;;5034039;28;20188;-72
2021/09/01 06:22:02;;;;;;;1.00;0.87;;;16.70;99.90;;;;;;5034104;28;20233;-72
2021/09/01 06:24:28;;;;;;;1.53;1.27;;;16.70;99.90;;;;;;5034114;28;20454;-72
2021/09/01 06:26:53;;;;;;;4.63;1.03;;;16.70;99.90;;;;;;5032357;28;20163;-72
2021/09/01 06:29:19;;;;;;;0.80;0.70;;;16.80;99.90;;;;;;5033840;28;20194;-72
2021/09/01 06:31:44;;;;;;;0.97;0.97;;;16.80;99.90;;;;;;5033896;28;20200;-72
2021/09/01 06:34:10;;;;;;;1.43;1.20;;;16.90;99.90;;;;;;5033837;28;20172;-72
2021/09/01 06:36:35;;;;;;;0.90;0.80;;;16.90;99.90;;;;;;5033526;28;20203;-73
2021/09/01 06:39:01;;;;;;;1.30;1.20;;;17.00;99.90;;;;;;5033810;28;20237;-73
2021/09/01 06:41:27;;;;;;;0.70;0.50;;;17.00;99.90;;;;;;5033685;28;20171;-73
2021/09/01 06:43:52;;;;;;;1.43;1.33;;;17.00;99.90;;;;;;5033675;28;20973;-73
2021/09/01 06:46:18;;;;;;;1.00;0.90;;;17.00;99.90;;;;;;5033309;28;20667;-73
2021/09/01 06:48:43;;;;;;;1.53;1.47;;;17.10;99.90;;;;;;5033522;28;20258;-73
2021/09/01 06:51:09;;;;;;;1.73;1.63;;;17.10;99.90;;;;;;5033531;28;20183;-73
2021/09/01 06:53:34;;;;;;;2.80;1.73;;;17.20;99.90;;;;;;5033600;28;20171;-72
2021/09/01 06:56:00;;;;;;;1.53;1.30;;;17.20;99.90;;;;;;5033046;28;20191;-72
2021/09/01 06:58:26;;;;;;;1.90;1.80;;;17.30;99.90;;;;;;5033279;28;20195;-72
2021/09/01 07:00:51;;;;;;;1.20;1.10;;;17.30;99.90;;;;;;5033411;28;20199;-74
2021/09/01 07:03:17;;;;;;;0.80;0.63;;;17.30;99.90;;;;;;5033260;28;20265;-72
2021/09/01 07:05:42;;;;;;;1.93;0.63;;;17.40;99.90;;;;;;5032922;28;20174;-72
2021/09/01 07:08:16;;;;;;;2.20;1.53;;;17.40;99.90;;;;;;5033199;28;20168;-72
2021/09/01 07:10:43;;;;;;;1.60;1.50;;;17.40;99.90;;;;;;5033153;28;20540;-72
2021/09/01 07:13:08;;;;;;;1.10;1.00;;;17.50;99.90;;;;;;5033235;28;20407;-72
2021/09/01 07:15:34;;;;;;;2.30;1.43;;;17.50;99.90;;;;;;5031483;28;20572;-72
2021/09/01 07:18:00;;;;;;;1.90;1.73;;;17.50;99.90;;;;;;5032743;28;20222;-72
2021/09/01 07:20:25;;;;;;;6.47;1.23;;;17.50;99.90;;;;;;5033068;28;20254;-73
2021/09/01 07:22:51;;;;;;;3.93;3.73;;;17.60;99.90;;;;;;5031661;28;20329;-73
2021/09/01 07:25:16;;;;;;;2.70;2.50;;;17.60;99.90;;;;;;5032554;28;20167;-73
2021/09/01 07:27:42;;;;;;;1.63;1.30;;;17.70;99.90;;;;;;5032875;28;20234;-73
2021/09/01 07:30:08;;;;;;;2.40;2.20;;;17.70;99.90;;;;;;5032754;28;20206;-72
2021/09/01 07:32:34;;;;;;;1.33;1.23;;;17.70;99.90;;;;;;5033008;28;20645;-73
2021/09/01 07:34:59;;;;;;;1.97;1.40;;;17.70;99.90;;;;;;5031352;28;20437;-73
2021/09/01 07:37:25;;;;;;;1.20;1.10;;;17.70;99.90;;;;;;5031417;28;20167;-73
2021/09/01 07:39:51;;;;;;;1.50;0.70;;;17.80;99.90;;;;;;5031205;28;20581;-73
2021/09/01 07:42:16;;;;;;;1.97;1.30;;;17.80;99.90;;;;;;5032181;28;20485;-73
2021/09/01 07:44:42;;;;;;;1.63;1.00;;;17.90;99.90;;;;;;5032471;28;20231;-73
2021/09/01 07:47:08;;;;;;;1.00;0.90;;;17.90;99.90;;;;;;5032215;28;20172;-73
2021/09/01 07:49:34;;;;;;;2.20;2.03;;;17.90;99.90;;;;;;5032372;28;20184;-73
2021/09/01 07:52:00;;;;;;;3.00;2.50;;;18.00;99.90;;;;;;5032437;28;20166;-73
2021/09/01 07:54:25;;;;;;;3.47;3.03;;;18.00;99.90;;;;;;5031071;28;21007;-73
2021/09/01 07:56:51;;;;;;;4.10;1.00;;;18.10;99.90;;;;;;5032102;28;20493;-75
2021/09/01 07:59:17;;;;;;;6.13;1.83;;;18.10;99.90;;;;;;5029424;28;20219;-73
2021/09/01 08:01:43;;;;;;;2.43;2.20;;;18.20;99.90;;;;;;5026569;28;20221;-73
2021/09/01 08:04:08;;;;;;;0.80;0.60;;;18.20;99.90;;;;;;5028938;28;20772;-73
2021/09/01 08:06:34;;;;;;;1.40;1.10;;;18.30;99.90;;;;;;5031696;28;20182;-73
2021/09/01 08:08:59;;;;;;;2.03;1.53;;;18.30;99.90;;;;;;5032003;28;20194;-73
2021/09/01 08:11:25;;;;;;;1.97;1.30;;;18.30;99.90;;;;;;5032024;28;20214;-73
2021/09/01 08:13:50;;;;;;;1.53;0.70;;;18.30;99.90;;;;;;5032114;28;20190;-73
2021/09/01 08:16:16;;;;;;;3.57;3.37;;;18.40;99.90;;;;;;5031338;28;20178;-73
2021/09/01 08:18:42;;;;;;;1.10;1.00;;;18.40;99.90;;;;;;5032219;28;20706;-73
2021/09/01 08:21:08;;;;;;;3.43;3.20;;;18.40;99.90;;;;;;5031994;28;20406;-73
2021/09/01 08:23:34;;;;;;;2.73;2.53;;;18.50;99.90;;;;;;5030577;28;20450;-73
2021/09/01 08:25:59;;;;;;;1.67;1.57;;;18.50;99.90;;;;;;5031733;28;20171;-73
2021/09/01 08:28:25;;;;;;;2.40;1.27;;;18.50;99.90;;;;;;5030288;28;20256;-73
2021/09/01 08:30:50;;;;;;;2.20;2.10;;;18.50;99.90;;;;;;5025994;28;20233;-73
2021/09/01 08:33:16;;;;;;;7.37;2.50;;;18.50;99.90;;;;;;5030895;28;20587;-73
2021/09/01 08:35:41;;;;;;;2.40;1.93;;;18.60;99.90;;;;;;5031574;28;20250;-73
2021/09/01 08:38:07;;;;;;;4.43;1.60;;;18.50;99.90;;;;;;5031802;28;20167;-73
2021/09/01 08:40:33;;;;;;;2.10;1.67;;;18.50;99.90;;;;;;5031746;28;20172;-73
2021/09/01 08:42:59;;;;;;;1.47;1.30;;;18.50;99.90;;;;;;5031757;28;20199;-73
2021/09/01 08:45:25;;;;;;;3.43;3.13;;;18.60;99.90;;;;;;5031483;28;20159;-73
2021/09/01 08:47:51;;;;;;;1.30;1.20;;;18.60;99.90;;;;;;5031754;28;20509;-73
2021/09/01 08:50:17;;;;;;;0.90;0.80;;;18.60;99.90;;;;;;5031657;28;20215;-73
2021/09/01 08:52:42;;;;;;;3.10;1.73;;;18.60;99.90;;;;;;5030840;28;20448;-73
2021/09/01 08:55:10;;;;;;;0.70;0.60;;;18.60;99.90;;;;;;5031278;28;20180;-73
2021/09/01 08:57:36;;;;;;;1.27;1.10;;;18.60;99.90;;;;;;5031710;28;20698;-73
2021/09/01 09:00:06;;;;;;;2.00;1.47;;;18.70;99.90;;;;;;5031536;28;20422;-73
2021/09/01 09:02:32;;;;;;;1.83;1.73;;;18.70;99.90;;;;;;5030278;28;20172;-74
2021/09/01 09:04:58;;;;;;;2.13;1.60;;;18.80;99.90;;;;;;5031349;28;20420;-73
2021/09/01 09:07:24;;;;;;;1.87;1.03;;;18.80;99.90;;;;;;5031494;28;20182;-73
2021/09/01 09:09:51;;;;;;;2.03;1.83;;;18.80;99.90;;;;;;5031475;28;20430;-73
2021/09/01 09:12:17;;;;;;;0.93;0.93;;;18.90;99.90;;;;;;5031597;28;20655;-73
2021/09/01 09:14:50;;;;;;;2.27;2.03;;;18.90;99.90;;;;;;5030193;28;20568;-73
2021/09/01 09:17:18;;;;;;;2.50;1.50;;;19.00;99.90;;;;;;5031414;28;20885;-73
2021/09/01 09:19:59;;;;;;;1.00;0.90;;;19.00;99.90;;;;;;5031473;28;20434;-73
2021/09/01 09:22:25;;;;;;;1.67;1.57;;;19.00;99.90;;;;;;5031358;28;20445;-73
2021/09/01 09:25:24;;;;;;;8.70;2.00;;;19.10;99.90;;;;;;5031242;28;20504;-73
2021/09/01 09:27:57;;;;;;;1.10;0.83;;;19.10;99.90;;;;;;5030133;28;20184;-73
2021/09/01 09:30:29;;;;;;;3.80;1.77;;;19.20;99.90;;;;;;5031384;28;20416;-73
2021/09/01 09:32:58;;;;;;;2.90;2.00;;;19.20;99.90;;;;;;5030106;28;20771;-73
2021/09/01 09:35:26;;;;;;;1.80;1.60;;;19.20;99.90;;;;;;5031021;28;20406;-73
2021/09/01 09:38:03;;;;;;;0.80;0.60;;;19.20;99.90;;;;;;5031255;28;20402;-73
2021/09/01 09:40:30;;;;;;;3.63;2.10;;;19.30;99.90;;;;;;5033303;28;20406;-73
2021/09/01 09:42:55;;;;;;;3.00;2.80;;;19.20;99.90;;;;;;5034654;28;20485;-73
2021/09/01 09:45:23;;;;;;;5.70;1.90;;;19.30;99.90;;;;;;5034542;28;20449;-73
2021/09/01 09:47:50;;;;;;;1.27;1.17;;;19.20;99.90;;;;;;5034720;28;20528;-73
2021/09/01 09:50:16;;;;;;;2.57;2.40;;;19.20;99.90;;;;;;5034557;28;20430;-73
2021/09/01 09:52:43;;;;;;;3.00;1.47;;;19.30;99.90;;;;;;5033196;28;20758;-73
2021/09/01 09:55:10;;;;;;;3.37;1.77;;;19.30;99.90;;;;;;5034285;28;20434;-73
2021/09/01 09:57:49;;;;;;;4.60;2.13;;;19.30;99.90;;;;;;5034470;28;20434;-73
2021/09/01 10:00:17;;;;;;;2.40;1.27;;;19.30;99.90;;;;;;5034481;28;20421;-73
2021/09/01 10:02:43;;;;;;;3.23;3.00;;;19.30;99.90;;;;;;5033058;28;20776;-74
2021/09/01 10:05:12;;;;;;;2.03;1.00;;;19.30;99.90;;;;;;5034234;28;20418;-73
2021/09/01 10:07:38;;;;;;;1.20;0.87;;;19.30;99.90;;;;;;5033060;28;20425;-73
2021/09/01 10:10:07;;;;;;;1.73;1.63;;;19.40;99.90;;;;;;5034272;28;20428;-73
2021/09/01 10:12:41;;;;;;;1.63;1.53;;;19.30;99.90;;;;;;5034210;28;20460;-73
2021/09/01 10:15:11;;;;;;;2.73;1.47;;;19.30;99.90;;;;;;5033957;28;20763;-73
2021/09/01 10:17:41;;;;;;;1.10;0.90;;;19.20;99.90;;;;;;5034266;28;20430;-73
2021/09/01 10:20:10;;;;;;;15.20;3.90;;;19.20;99.90;;;;;;5032802;28;20520;-73
2021/09/01 10:22:36;;;;;;;1.97;1.60;;;19.20;99.90;;;;;;5033855;28;20765;-73
2021/09/01 10:25:02;;;;;;;2.20;1.63;;;19.20;99.90;;;;;;5033737;28;20440;-73
2021/09/01 10:27:29;;;;;;;3.43;1.30;;;19.10;99.90;;;;;;5034022;28;20192;-73
2021/09/01 10:30:04;;;;;;;0.80;0.80;;;19.10;99.90;;;;;;5033896;28;20429;-73
2021/09/01 10:32:44;;;;;;;8.60;1.60;;;19.10;99.90;;;;;;5034383;28;20402;-73
2021/09/01 10:37:43;;;;;;;1.53;1.43;;;19.10;99.90;;;;;;5034006;28;20410;-73
2021/09/01 10:40:54;;;;;;;1.00;0.80;;;19.10;99.90;;;;;;5032525;28;20434;-73
2021/09/01 10:43:20;;;;;;;2.50;1.30;;;19.00;99.90;;;;;;5031292;28;20460;-73
2021/09/01 10:45:49;;;;;;;2.33;1.77;;;19.00;99.90;;;;;;5021393;28;20420;-73
2021/09/01 10:48:15;;;;;;;1.53;1.10;;;19.00;99.90;;;;;;5026147;28;20438;-73
2021/09/01 10:50:50;;;;;;;1.43;1.13;;;18.90;99.90;;;;;;5032071;28;20414;-73
2021/09/01 10:53:24;;;;;;;1.20;1.10;;;19.00;99.90;;;;;;5033166;28;20409;-73
2021/09/01 10:55:54;;;;;;;1.20;1.10;;;18.90;99.90;;;;;;5033066;28;20799;-73
2021/09/01 10:58:33;;;;;;;2.70;2.20;;;18.90;99.90;;;;;;5033397;28;20430;-73
2021/09/01 11:01:05;;;;;;;1.67;1.57;;;19.00;99.90;;;;;;5032180;28;20417;-73
2021/09/01 11:03:40;;;;;;;1.33;1.23;;;19.00;99.90;;;;;;5023502;28;20457;-73
2021/09/01 11:06:33;;;;;;;3.23;1.40;;;18.90;99.90;;;;;;5013150;28;20395;-73
2021/09/01 11:09:13;;;;;;;2.10;1.27;;;18.90;99.90;;;;;;5012404;28;20463;-73
2021/09/01 11:11:52;;;;;;;1.40;1.30;;;18.90;99.90;;;;;;5013366;28;20453;-73
2021/09/01 11:14:36;;;;;;;5.93;1.97;;;19.00;99.90;;;;;;5013379;28;20411;-73
2021/09/01 11:17:07;;;;;;;3.37;1.90;;;19.00;99.90;;;;;;5011802;28;20431;-73
2021/09/01 11:19:33;;;;;;;3.10;1.40;;;18.90;99.90;;;;;;5013144;28;20442;-73
2021/09/01 11:22:04;;;;;;;1.63;1.53;;;19.00;99.90;;;;;;5013163;28;20905;-73
2021/09/01 11:24:29;;;;;;;2.73;2.47;;;18.90;99.90;;;;;;5013094;28;20998;-73
2021/09/01 11:26:57;;;;;;;3.20;1.73;;;19.00;99.90;;;;;;5012850;28;20411;-74
2021/09/01 11:29:33;;;;;;;11.27;2.10;;;19.00;99.90;;;;;;5012976;28;20184;-73
2021/09/01 11:31:59;;;;;;;1.07;0.67;;;19.10;99.90;;;;;;5013020;28;20888;-74
2021/09/01 11:34:25;;;;;;;1.60;1.50;;;19.10;99.90;;;;;;5011764;28;20415;-75
2021/09/01 11:36:51;;;;;;;3.53;2.20;;;19.10;99.90;;;;;;5012704;28;20234;-74
2021/09/01 11:39:17;;;;;;;3.20;2.70;;;19.10;99.90;;;;;;5012937;28;20634;-74
2021/09/01 11:41:45;;;;;;;7.23;2.60;;;19.20;99.90;;;;;;5012825;28;20448;-74
2021/09/01 11:44:11;;;;;;;1.40;1.30;;;19.20;99.90;;;;;;5012728;28;20462;-74
2021/09/01 11:46:39;;;;;;;6.57;1.70;;;19.20;99.90;;;;;;5012669;28;20465;-74
2021/09/01 11:49:06;;;;;;;4.03;3.73;;;19.20;99.90;;;;;;5011327;28;20485;-74
2021/09/01 11:51:31;;;;;;;1.93;1.00;;;19.20;99.90;;;;;;5012791;28;20428;-72
2021/09/01 11:53:59;;;;;;;1.73;1.53;;;19.30;99.90;;;;;;5012625;28;20635;-74
2021/09/01 11:56:26;;;;;;;3.83;1.73;;;19.30;99.90;;;;;;5012195;28;20180;-74
2021/09/01 11:58:59;;;;;;;2.43;1.70;;;19.40;99.90;;;;;;5012543;28;20427;-74
2021/09/01 12:01:27;;;;;;;4.93;3.00;;;19.40;99.90;;;;;;5012634;28;20411;-74
2021/09/01 12:03:53;;;;;;;3.13;1.40;;;19.40;99.90;;;;;;5010250;28;20818;-74
2021/09/01 12:06:18;;;;;;;4.70;2.47;;;19.50;99.90;;;;;;5012207;28;20892;-76
2021/09/01 12:08:47;;;;;;;2.03;1.63;;;19.50;99.90;;;;;;5012483;28;20430;-76
2021/09/01 12:11:13;;;;;;;3.37;3.07;;;19.50;99.90;;;;;;5012434;28;20161;-76
2021/09/01 12:13:43;;;;;;;5.53;1.80;;;19.50;99.90;;;;;;5012433;28;20768;-74
2021/09/01 12:16:10;;;;;;;1.83;1.73;;;19.50;99.90;;;;;;5012192;28;20403;-74
2021/09/01 12:19:09;;;;;;;1.53;1.37;;;19.50;99.90;;;;;;5011247;28;20526;-74
2021/09/01 12:21:52;;;;;;;1.63;1.53;;;19.60;99.90;;;;;;5008202;28;20423;-74
2021/09/01 12:24:27;;;;;;;2.67;2.03;;;19.60;99.90;;;;;;5011185;28;21018;-74
2021/09/01 12:26:55;;;;;;;3.43;3.07;;;19.60;99.90;;;;;;5011931;28;20406;-74
2021/09/01 12:29:28;;;;;;;2.40;1.37;;;19.60;99.90;;;;;;5012148;28;20434;-76
2021/09/01 12:31:55;;;;;;;2.47;2.33;;;19.70;99.90;;;;;;5012041;28;20411;-74
2021/09/01 12:34:30;;;;;;;1.50;1.40;;;19.70;99.90;;;;;;5012184;28;20415;-74
2021/09/01 12:37:00;;;;;;;1.73;0.80;;;19.80;99.90;;;;;;5011953;28;20423;-72
2021/09/01 12:39:26;;;;;;;1.10;1.00;;;19.90;99.90;;;;;;5012174;28;20787;-73
2021/09/01 12:41:51;;;;;;;1.33;1.00;;;19.90;99.90;;;;;;5012189;28;20498;-74
2021/09/01 12:44:17;;;;;;;3.13;1.47;;;19.90;99.90;;;;;;5012010;28;20195;-75
2021/09/01 12:46:43;;;;;;;1.40;1.10;;;19.90;99.90;;;;;;5010491;28;20187;-76
2021/09/01 12:49:25;;;;;;;2.20;1.20;;;19.80;99.90;;;;;;5011958;28;20502;-76